New Tredegar, United Kingdom
Current Conditions -  °F | °C
As of 4:20 AM on Wednesday 26 Nov 2014 (Local Time) from EGFF Reporting Station
Light Rain Light Rain  
Wind Chill: 40°   Ceiling: 700
Heat Index: 45°   Visibility: 6mi
Dew Point: 43°   Wind: 8mph
Humidity: 93%   Direction: 40°NE
Pressure: 29.91"   Gusts: NA
Location:  51.72°N, 3.24°W
Report Text: EGFF 260420Z AUTO 04007KT 9000 -RA OVC007 07/06 Q1013 RERA
Loading
Personal Weather Stations






























Interactive Weather Map New forecast layout! Learn more

10-Day Weather Forecast

Advertisements
Track Severe Weather on mobile